Sagiv Solomon

Recruteur en chef - Maccabi Tel Aviv
23 Oct 2027
Samedi
Processus

Personnalité

Adaptabilité (4) Ambition (6) Controverse (4) Loyauté (4) Pression (3) Professionnalisme (8) Sportivité (19) Tempérament (6)

Profil

Style d'entraînement Démocratique
Diplôme Continental A
Détermination 12
Gestion des joueurs 9
Motivation 11
Discipline 5
Satisfaction professionnelle
100%
Fatigue
0%
Rôle Recruteur en chef
Salaire 37.5K p/s
Contrat 14.03.2029

Performance

Comportement Bon
Efficacité de l'entraînement
41%
Développement des joueurs
45%
Prévention des blessures
65%
Mise en place tactique
30%

Événements récents

A évalué un joueur maintenant
A participé à une réunion de recrutement maintenant
A participé à une réunion de recrutement maintenant
A recommandé une cible de transfert maintenant
A recommandé une cible de transfert maintenant
A participé à une réunion de recrutement maintenant
A évalué un joueur maintenant
A évalué un joueur maintenant

Suivi en cours

318
Joueur Club Statut Capacité Confiance Observé Dernière observation Dernier vote
Nahuel Furtado Wanderers Actif 124 / 123 40% 4 21.10.2027 -
Hernán de la Fuente Instituto Actif 129 / 120 40% 1 21.10.2027 -
Lucas Souto Defensa y Justicia Actif 123 / 120 40% 1 21.10.2027 -
Nahuel Herrera Penarol Actif 122 / 131 40% 6 20.10.2027 -
Juan Saborido Platense Actif 122 / 129 40% 3 20.10.2027 -
Federico Pereira Huracán Actif 137 / 138 40% 4 20.10.2027 -
Tim Iroegbunam Hull City Actif 142 / 137 40% 5 19.10.2027 -
Kauã Moraes Cruzeiro Actif 127 / 128 40% 2 19.10.2027 -
Lucas Agazzi Defensor Sporting Actif 123 / 125 40% 2 19.10.2027 -
Tomás Silva Platense Actif 126 / 122 40% 1 19.10.2027 -
Gastón Benedetti Estudiantes Actif 129 / 131 40% 1 19.10.2027 -
Franco Ibarra Rosario Central Actif 133 / 132 40% 1 19.10.2027 -
Emanuel Coronel Rosario Central Actif 128 / 123 40% 3 18.10.2027 -
César Pérez Defensa y Justicia Actif 125 / 129 40% 3 18.10.2027 -
Fernando Martínez Central Córdoba SdE Actif 124 / 117 40% 2 18.10.2027 -
Elías Báez Atlanta United FC Actif 134 / 129 40% 4 17.10.2027 -
Loïc Williams Colorado Rapids Actif 138 / 136 40% 1 17.10.2027 -
Rodrigo Chagas Juventud Actif 124 / 118 40% 3 16.10.2027 -
Mauricio Amaro Atlanta United FC Actif 128 / 131 40% 4 14.10.2027 -
Valentín Moreno Tigre Actif 118 / 120 40% 2 14.10.2027 -
Santiago Esquivel Banfield Actif 122 / 126 40% 1 14.10.2027 -
Eduard Atuesta Orlando City Actif 126 / 118 40% 1 14.10.2027 -
Teruki Hara Nagoya Grampus Actif 123 / 113 40% 1 14.10.2027 -
Mateo Mendoza Godoy Cruz Actif 127 / 131 40% 4 13.10.2027 -
Matheus Thuler Vissel Kobe Actif 136 / 138 40% 3 13.10.2027 -
Vicente Poggi Godoy Cruz Actif 129 / 123 40% 4 10.10.2027 -
Eduardo Darias Vélez Actif 131 / 128 40% 2 10.10.2027 -
Oscar Salomón Newell's Old Boys Actif 119 / 127 40% 1 10.10.2027 -
Felipe Peña Biafore Lanús Actif 129 / 132 40% 2 09.10.2027 -
Leandro Lucero Temperley Actif 111 / 117 40% 3 09.10.2027 -
Emanuel Mammana Vélez Actif 132 / 125 40% 1 09.10.2027 -
Bruno Leyes Godoy Cruz Actif 131 / 128 40% 3 08.10.2027 -
Tomás Escalante Plaza Colonia Actif 119 / 126 40% 7 08.10.2027 -
Joaquín García Vélez Actif 132 / 125 40% 1 08.10.2027 -
Bryan Ramírez FC Cincinnati Actif 140 / 131 40% 2 07.10.2027 -
Lucas Carrizo Newell's Old Boys Actif 123 / 123 40% 1 07.10.2027 -
Ulises Ortegoza Talleres Actif 119 / 123 40% 1 05.10.2027 -
Igor Jesus Los Angeles Football Club Actif 126 / 120 40% 3 04.10.2027 -
Ignacio Vázquez Platense Actif 128 / 125 40% 1 04.10.2027 -
Andrey Santos Doncaster Rovers Actif 140 / 148 40% 1 04.10.2027 -
Aarón Quiros Vélez Actif 128 / 128 40% 1 01.10.2027 -
Lucas Monzón Alvarado Actif 109 / 114 40% 1 01.10.2027 -
Maizon Rodríguez Unión de Santa Fe Actif 119 / 118 40% 1 01.10.2027 -
Marcos López San Martín Actif 136 / 128 40% 2 29.09.2027 -
Tobías Leiva Estudiantes Actif 112 / 116 40% 1 29.09.2027 -
Tomás Porra Barracas Central Actif 111 / 124 40% 1 29.09.2027 -
Juan Pablo Ludueña Unión de Santa Fe Actif 122 / 123 40% 2 28.09.2027 -
Juan José Cardozo Argentinos Juniors Actif 117 / 120 40% 1 25.09.2027 -
Federico Pérez Agropecuario Argentino Actif 113 / 120 40% 1 25.09.2027 -
Matías Pérez Racing Club Actif 124 / 131 40% 1 23.09.2027 -
Gonzalo Abrego Godoy Cruz Actif 124 / 119 40% 5 22.09.2027 -
Santiago Núñez Estudiantes Actif 128 / 124 40% 2 22.09.2027 -
Santiago González Tigre Actif 127 / 131 40% 1 22.09.2027 -
Julián Palacios Envigado Actif 121 / 118 40% 1 22.09.2027 -
Damián Fernández Defensa y Justicia Actif 134 / 124 40% 2 19.09.2027 -
Koffi Kouao Neftchi Actif 121 / 121 40% 1 19.09.2027 -
Leonel Pollacchi San Telmo Actif 109 / 116 40% 1 18.09.2027 -
Nicolás Tripichio San Lorenzo Actif 126 / 123 40% 1 16.09.2027 -
Gastón Hernández San Lorenzo Actif 133 / 129 40% 1 16.09.2027 -
Joao Ortiz Portland Timbers Actif 117 / 130 40% 1 14.09.2027 -
Santiago Longo Belgrano Actif 130 / 129 40% 1 14.09.2027 -
Édier Ocampo Vancouver Whitecaps Actif 113 / 117 40% 1 14.09.2027 -
Augusto Schott Talleres Actif 124 / 121 40% 1 11.09.2027 -
Patrick Yazbek Nashville SC Actif 119 / 133 40% 2 09.09.2027 -
Lucas Arce Godoy Cruz Actif 119 / 120 40% 2 07.09.2027 -
Farid El Melali CR Belouizdad Actif 131 / 125 40% 1 31.08.2027 -
Emanuel Coronel Rosario Central Perdu 130 / 129 40% 1 31.08.2027 -
Imanol Machuca Independiente Actif 134 / 130 40% 1 31.08.2027 -
Jelle Bataille Maccabi Haifa Perdu 126 / 133 40% 4 23.08.2027 -
Tomás Chancalay Minnesota United FC Perdu 128 / 126 40% 1 23.08.2027 -
Luis Milla Como Perdu 144 / 145 40% 2 18.08.2027 -
Matheus Davó Maccabi Netanya Perdu 119 / 128 40% 1 18.08.2027 -
Manuel Benson Maccabi Haifa Actif 124 / 119 40% 1 18.08.2027 Plus d'infos
Aleš Matějů Spezia Actif 130 / 126 40% 3 17.08.2027 -
Hamode Kanaan Hapoel Beer Sheva Actif 138 / 134 40% 1 17.08.2027 Plus d'infos
Yari Verschaeren Sampdoria Actif 120 / 122 40% 1 17.08.2027 -
Lorenzo Carissoni Padova Actif 129 / 120 40% 1 17.08.2027 -
Valerio Mantovani Bari Actif 121 / 126 40% 1 12.08.2027 -
Unai Vencedor Burgos Actif 136 / 132 40% 1 12.08.2027 -
Jacopo Segre Palermo Actif 130 / 137 40% 1 12.08.2027 -
Gianluca Busio Venezia Actif 140 / 138 40% 1 11.08.2027 -
Alfie Doughty Millwall Actif 126 / 132 40% 2 09.08.2027 -
Manuel Benson Maccabi Haifa Perdu 131 / 119 40% 1 09.08.2027 Plus d'infos
Liel Abada Charlotte Football Club Actif 141 / 133 40% 1 09.08.2027 -
Saša Lukić Ipswich Town Actif 140 / 140 40% 7 08.08.2027 -
Aidan Morris Middlesbrough Actif 132 / 140 40% 3 08.08.2027 -
Ross McCrorie Bristol City Perdu 131 / 127 40% 6 08.08.2027 -
Callum O'Hare Sheffield United Actif 131 / 131 40% 2 08.08.2027 -
Marcus McGuane Huddersfield Town Actif 118 / 123 40% 1 08.08.2027 -
Tyler Goodrham Oxford United Actif 125 / 121 40% 1 08.08.2027 -
Tyrese Campbell Sheffield United Actif 133 / 127 40% 3 07.08.2027 -
Mathias Jørgensen Blackburn Rovers Actif 120 / 123 40% 2 07.08.2027 -
Paik Seung-Ho Birmingham Actif 126 / 132 40% 6 05.08.2027 -
Gabriel Strefezza Palermo Actif 128 / 126 40% 2 05.08.2027 -
Todd Cantwell Blackburn Rovers Actif 129 / 136 40% 2 05.08.2027 -
Patrick Roberts Birmingham Actif 136 / 131 40% 1 04.08.2027 -
Isma Ruiz Córdoba Actif 140 / 139 40% 5 02.08.2027 -
Imrân Louza Watford Actif 131 / 131 40% 2 02.08.2027 -
Jacques Ekomié Wrexham Actif 130 / 140 40% 3 01.08.2027 -
Atsuki Ito Bolton Wanderers Actif 124 / 129 40% 4 01.08.2027 -
Antonio Galeano Remo Stars Perdu 128 / 130 40% 1 01.08.2027 -
Kortney Hause Bristol Rovers Actif 131 / 128 40% 3 31.07.2027 -
Adam Randell Bristol City Actif 134 / 132 40% 3 31.07.2027 -
Ben Chrisene Sheffield Wednesday Actif 129 / 127 40% 2 31.07.2027 -
Camilo Durán Bloemfontein Celtic Actif 122 / 124 40% 1 31.07.2027 -
Melker Widell Swansea City Actif 132 / 128 40% 1 31.07.2027 -
Gustavo Hamer Sheffield United Actif 130 / 131 40% 5 29.07.2027 -
Kayne Ramsay Charlton Athletic Actif 130 / 126 40% 2 29.07.2027 -
Oladapo Afolayan Blackburn Rovers Actif 135 / 129 40% 1 29.07.2027 -
Jovon Makama Norwich City Actif 126 / 121 40% 2 28.07.2027 -
Kwame Poku Queens Park Rangers Actif 129 / 132 40% 2 28.07.2027 -
Lewis O'Brien Wrexham Actif 124 / 123 40% 5 27.07.2027 -
Terry Devlin Portsmouth Actif 117 / 128 40% 2 27.07.2027 -
Stephy Mavididi Leicester City Actif 132 / 136 40% 1 27.07.2027 -
Marc Bola Watford Actif 129 / 124 40% 1 26.07.2027 -
Ousmane Diakité West Bromwich Albion Actif 137 / 131 40% 3 23.07.2027 -
Samuele Angori Pisa Actif 138 / 140 40% 1 23.07.2027 -
Bosun Lawal Stoke City Actif 138 / 124 40% 2 22.07.2027 -
Wes Burns Leicester City Perdu 122 / 133 40% 1 20.07.2027 -
Hwang Hee-Chan Wolverhampton Actif 130 / 131 40% 2 19.07.2027 -
Cameron Pring Bristol City Actif 127 / 126 40% 4 19.07.2027 -
Brian De Keersmaecker Oxford United Actif 130 / 122 40% 2 18.07.2027 -
Gabriel Osho Cardiff City Actif 132 / 122 40% 3 16.07.2027 -
Guille Rosas Gijón Actif 143 / 133 40% 2 16.07.2027 -
Luke McNally Bristol City Actif 133 / 137 40% 3 15.07.2027 -
Alfie Gilchrist West Bromwich Albion Actif 130 / 131 40% 2 13.07.2027 -
Oliver Skipp Leicester City Actif 142 / 139 40% 2 12.07.2027 -
Teden Mengi Luton Town Actif 119 / 125 40% 4 10.07.2027 -
Eoin Toal Bolton Wanderers Actif 120 / 122 40% 1 10.07.2027 -
Lewis Gibson Preston Actif 137 / 123 40% 1 08.07.2027 -
Hidemasa Morita Hull City Actif 149 / 148 40% 1 06.07.2027 -
Emanuele Valeri Parma Actif 145 / 139 40% 1 06.07.2027 -
Di'Shon Bernard Sheffield Wednesday Actif 123 / 128 40% 2 04.07.2027 -
Jimmy Dunne Queens Park Rangers Actif 131 / 129 40% 1 04.07.2027 -
Josh Edwards Charlton Athletic Actif 116 / 130 40% 2 03.07.2027 -
Nobel Mendy Hull City Actif 144 / 141 40% 3 01.07.2027 -
Tristan Crama Millwall Actif 125 / 128 40% 2 01.07.2027 -
Jesper Karlström Udinese Actif 133 / 134 40% 2 30.06.2027 -
Marco Bellich Juve Stabia Actif 119 / 123 40% 2 30.06.2027 -
Samuele Birindelli Monza Actif 121 / 123 40% 1 29.06.2027 -
Franck Fomeyem Córdoba Actif 132 / 122 40% 1 29.06.2027 -
Pierre Cornud Maccabi Haifa Actif 128 / 118 40% 10 28.06.2027 -
Lucas Ventura Hapoel Beer Sheva Refusé 130 / 134 40% 1 28.06.2027 -
Sondre Tronstad Blackburn Rovers Actif 130 / 122 40% 1 28.06.2027 -
Andrian Kraev Hapoel Tel Aviv Actif 129 / 129 40% 12 27.06.2027 -
Anthony Oyono Frosinone Actif 130 / 127 40% 1 24.06.2027 -
Pietro Ceccaroni Palermo Actif 120 / 126 40% 1 23.06.2027 -
Fabio Gerli Modena Actif 130 / 120 40% 1 23.06.2027 -
Sebastián Driussi River Plate Perdu 123 / 122 40% 1 21.06.2027 -
Josh Murphy Portsmouth Perdu 135 / 123 40% 1 14.06.2027 -
Tomáš Chorý Spartak Moscow Actif 141 / 141 40% 4 08.06.2027 -
Sindre Walle Egeli Nottingham Forest Actif 140 / 129 40% 3 08.06.2027 -
Daniel Paraschiv Bnei Sakhnin Actif 113 / 122 76% 1 07.06.2027 Approuver
Rumarn Burrell Queens Park Rangers Actif 133 / 127 40% 2 05.06.2027 -
Yarden Shua Beitar Jerusalem Actif 127 / 126 40% 1 05.06.2027 -
Iqraam Rayners Mamelodi Sundowns Actif 128 / 129 40% 2 04.06.2027 -
Lyle Foster Burnley Actif 139 / 124 40% 1 04.06.2027 -
Adam Armstrong Wolverhampton Actif 120 / 130 40% 1 04.06.2027 -
Mattia Felici Cagliari Actif 129 / 135 40% 1 03.06.2027 -
Yousef Salech Cardiff City Actif 136 / 133 40% 3 01.06.2027 -
Stav Toriel Hapoel Tel Aviv Refusé 125 / 130 40% 2 31.05.2027 -
Lorenzo Colombo Genoa Actif 138 / 132 40% 1 31.05.2027 -
Simone Scuffet Pisa Actif 136 / 127 40% 9 30.05.2027 -
Japhet Tanganga Sheffield United Actif 133 / 123 40% 3 30.05.2027 -
Mathías Olivera Cesena Actif 150 / 146 40% 1 30.05.2027 -
Callum Doyle Wrexham Actif 130 / 141 40% 4 27.05.2027 -
Jacob Widell Zetterström Derby County Actif 129 / 128 40% 4 27.05.2027 -
Victor Torp Coventry City Actif 133 / 132 40% 2 27.05.2027 -
Justin Devenny Stoke City Actif 128 / 124 40% 1 26.05.2027 -
Lorenzo Palmisani Frosinone Actif 129 / 137 40% 8 23.05.2027 -
Daniel Iversen Preston Actif 129 / 126 40% 4 23.05.2027 -
Thierry Rendall Correia Venezia Actif 141 / 144 40% 1 22.05.2027 -
Radek Vítek Middlesbrough Actif 147 / 145 40% 5 21.05.2027 -
Samu Maccabi Netanya Actif 114 / 118 40% 5 19.05.2027 -
Williams Mahlangu SuperSport United Actif 111 / 106 40% 5 19.05.2027 -
George Wickens Lincoln City Actif 114 / 115 40% 3 19.05.2027 -
Arijanet Murić Sassuolo Actif 143 / 149 40% 6 18.05.2027 -
Viktor Johansson Stoke City Actif 129 / 128 40% 3 18.05.2027 -
Joe Lumley Sheffield Wednesday Actif 118 / 115 40% 4 17.05.2027 -
Edoardo Bove Watford Actif 132 / 133 40% 2 17.05.2027 -
Davis Keillor-Dunn Wrexham Actif 114 / 121 40% 2 17.05.2027 -
Matt Clarke Derby County Actif 136 / 133 40% 1 17.05.2027 -
Luca Moro Padova Actif 126 / 115 40% 1 17.05.2027 -
Joel Pereira Reading Actif 110 / 114 40% 2 15.05.2027 -
Lorenzo Montipò Venezia Actif 143 / 140 40% 1 13.05.2027 -
Riccardo Gagno Vicenza Actif 131 / 118 40% 5 12.05.2027 -
Fran Vieites Exeter City Actif 130 / 124 40% 4 12.05.2027 -
Lukas Jensen Millwall Actif 120 / 112 40% 4 12.05.2027 -
Stefano Gori Union Brescia Actif 118 / 121 40% 6 11.05.2027 -
Michael Cooper Sheffield United Actif 126 / 140 40% 5 11.05.2027 -
Max O'Leary West Bromwich Albion Actif 123 / 134 40% 4 11.05.2027 -
Josh Keeley Luton Town Actif 129 / 119 40% 2 10.05.2027 -
John Yeboah Venezia Actif 127 / 112 40% 2 09.05.2027 -
Ilario Monterisi Frosinone Actif 122 / 135 40% 1 06.05.2027 -
Egil Selvik Watford Actif 122 / 125 40% 3 04.05.2027 -
Bento Lokomotiv Moscow Actif 139 / 136 40% 7 30.04.2027 -
Carl Rushworth Coventry City Actif 149 / 140 40% 5 27.04.2027 -
Giorgi Kvernadze Frosinone Actif 122 / 132 40% 1 27.04.2027 -
Thalys Almería Actif 123 / 129 40% 1 27.04.2027 -
Wladimiro Falcone Lecce Actif 142 / 139 40% 5 25.04.2027 -
Vladan Kovačević Norwich City Actif 113 / 121 40% 2 22.04.2027 -
Karlan Grant West Bromwich Albion Actif 119 / 125 40% 1 22.04.2027 -
Murphy Cooper Plymouth Argyle Actif 124 / 124 40% 4 19.04.2027 -
Alessio Cragno Südtirol Actif 120 / 119 40% 4 16.04.2027 -
Omri Glazer Maccabi Haifa Actif 127 / 129 40% 4 16.04.2027 -
Nathan Trott Cardiff City Actif 119 / 121 40% 5 16.04.2027 -
Filip Marschall Stevenage Actif 122 / 110 40% 3 15.04.2027 -
Anthony Patterson Wrexham Actif 128 / 124 40% 1 13.04.2027 -
Liam Roberts Mansfield Town Actif 104 / 113 40% 2 09.04.2027 -
Assaf Tzur Hapoel Tel Aviv Actif 111 / 115 40% 2 08.04.2027 -
Aidomo Emakhu Oxford United Actif 115 / 132 40% 1 08.04.2027 -
Grégoire Coudert Burnley Actif 136 / 130 40% 2 06.04.2027 -
Nicolas Schmid Portsmouth Actif 123 / 119 40% 2 31.03.2027 -
Sipho Chaine Orlando Pirates Actif 129 / 115 40% 5 29.03.2027 -
Will Mannion Charlton Athletic Actif 119 / 113 40% 2 29.03.2027 -
Harry Clarke Preston Actif 120 / 122 40% 2 28.03.2027 -
Rubens Dinamo Moscow Actif 131 / 132 40% 8 27.03.2027 -
Oli McBurnie Hull City Actif 139 / 135 40% 1 27.03.2027 -
Richard Koné Queens Park Rangers Actif 119 / 122 40% 1 27.03.2027 -
Arthur Beroe Actif 122 / 111 40% 4 22.03.2027 -
Tommy Conway Middlesbrough Actif 136 / 122 40% 1 22.03.2027 -
Kostantis Tzolakis Hull City Actif 139 / 138 40% 1 20.03.2027 -
Maduka Okoye Udinese Actif 141 / 145 40% 2 18.03.2027 -
Jordan Lotomba Bloemfontein Celtic Actif 130 / 121 40% 6 17.03.2027 -
Welington Southampton Actif 125 / 134 40% 1 14.03.2027 -
Max Johnston Derby County Actif 123 / 133 40% 1 14.03.2027 -
Bobby Thomas Coventry City Actif 137 / 134 40% 1 12.03.2027 -
Callum Brittain Middlesbrough Actif 139 / 121 40% 1 12.03.2027 -
Shea Charles Southampton Actif 130 / 132 40% 1 10.03.2027 -
Konan N'Dri Lecce Actif 127 / 122 40% 1 09.03.2027 -
Patrick Agyemang Derby County Actif 132 / 118 40% 1 09.03.2027 -
Evgeny Staver Rubin Actif 108 / 107 40% 3 05.03.2027 -
Brandon Petersen Kaizer Chiefs Actif 125 / 123 40% 2 04.03.2027 -
Alexandr Koryakin Krasnodar Actif 115 / 118 40% 2 04.03.2027 -
Lucas Ventura Hapoel Beer Sheva Perdu 131 / 131 40% 9 03.03.2027 -
Ruben Loftus-Cheek AC Milan Actif 143 / 146 40% 1 03.03.2027 -
Rolando Mandragora Torino Actif 135 / 137 40% 1 03.03.2027 -
Nikolay Komlichenko Lokomotiv Moscow Actif 126 / 125 40% 1 01.03.2027 -
Luca Gemello Perugia Actif 120 / 106 40% 2 27.02.2027 -
Peter Leeuwenburgh Apollon Actif 115 / 111 40% 3 25.02.2027 -
Alen Sherri Cagliari Actif 120 / 119 40% 1 23.02.2027 -
Simone Perilli Hellas Verona Actif 110 / 118 40% 1 22.02.2027 -
Christian Krasnodar Actif 132 / 141 40% 5 19.02.2027 -
Alexandr Selikhov Ural Actif 111 / 108 40% 2 19.02.2027 -
Pedro Rocha Juventude Actif 112 / 117 40% 1 14.02.2027 -
Nikita Haikin Spartak Moscow Actif 137 / 144 40% 1 13.02.2027 -
Mateusz Kochalski Qarabag Actif 129 / 136 40% 1 11.02.2027 -
Gianluca Saro Foggia Actif 117 / 110 40% 1 08.02.2027 -
Svetoslav Vutsov Levski Actif 120 / 122 40% 2 07.02.2027 -
Alexandr Chernikov Krasnodar Actif 128 / 136 40% 3 06.02.2027 -
Julio Alonso Huesca Actif 121 / 117 40% 2 06.02.2027 -
Danil Glebov Dinamo Moscow Actif 132 / 124 40% 4 04.02.2027 -
Erick Marcus Ludogorets Actif 132 / 115 40% 1 03.02.2027 -
Eliel Peretz Hapoel Beer Sheva Actif 125 / 126 40% 1 03.02.2027 -
Maicon Levski Actif 128 / 126 40% 8 30.01.2027 -
Diego Costa Krasnodar Actif 143 / 143 40% 8 29.01.2027 -
Doğucan Haspolat Westerlo Actif 123 / 118 40% 1 29.01.2027 -
Gedson Fernandes Spartak Moscow Actif 130 / 134 40% 5 28.01.2027 -
Ammar Ramadan DAC Dunajska Streda Actif 133 / 128 40% 1 27.01.2027 -
Liziero Nacional Actif 122 / 118 40% 2 25.01.2027 -
Szabolcs Szoboszlai Haladas Actif 134 / 133 40% 1 24.01.2027 -
Khuliso Mudau Mamelodi Sundowns Actif 137 / 129 40% 2 16.01.2027 -
Mariano Gómez Ferencvaros Actif 127 / 122 40% 1 15.01.2027 -
Joel Andersson Ludogorets Actif 130 / 123 40% 2 13.01.2027 -
Arsen Adamov Akhmat Grozny Actif 128 / 117 40% 1 13.01.2027 -
Benoît Gérard RC Strasbourg Actif 133 / 136 40% 1 01.01.2027 -
Manfred Ugalde Spartak Moscow Actif 134 / 123 40% 1 01.01.2027 -
Dean Zungu SuperSport United Actif 123 / 118 40% 2 26.12.2026 -
Marko Grujić Levski Actif 125 / 120 40% 2 23.12.2026 -
Son Ludogorets Actif 117 / 129 40% 2 23.12.2026 -
Eldar Ćivić Baltika Actif 116 / 113 40% 2 23.12.2026 -
Luan Patrick Estrela da Amadora Actif 120 / 129 40% 2 22.12.2026 -
Issa Djibrilla Zira Actif 114 / 115 40% 1 22.12.2026 -
Pedro Bicalho Qarabag Actif 129 / 124 40% 5 15.12.2026 -
João Victor CSKA Moscow Actif 124 / 133 40% 1 13.12.2026 -
Moisés CSKA Moscow Actif 124 / 133 40% 8 10.12.2026 -
Hlompho Billiat Free State Stars Actif 122 / 129 40% 1 10.12.2026 -
Mitchel Bakker Rostov Actif 120 / 129 40% 1 05.12.2026 -
Pedro Naressi Ludogorets Actif 116 / 119 40% 2 02.12.2026 -
Cesar Blackman Slovan Bratislava Actif 122 / 118 40% 1 02.12.2026 -
Pedrão Maccabi Haifa Actif 110 / 122 40% 3 01.12.2026 -
Aubrey Modiba Mamelodi Sundowns Actif 125 / 122 40% 4 29.11.2026 -
Sean Goldberg Maccabi Haifa Actif 124 / 119 40% 1 28.11.2026 -
Christos Mouzakitis Hull City Actif 135 / 138 40% 1 26.11.2026 -
Peter Agba Maccabi Haifa Actif 122 / 119 40% 2 25.11.2026 -
Rahim Ibrahim Slovan Bratislava Actif 118 / 120 40% 6 23.11.2026 -
Caolan Boyd-Munce Wycombe Wanderers Actif 113 / 112 40% 2 23.11.2026 -
Svetozar Marković Slovan Bratislava Actif 122 / 126 40% 2 12.11.2026 -
Thalente Mbatha Orlando Pirates Actif 119 / 115 40% 1 12.11.2026 -
Vasco Sousa Porto Actif 113 / 128 40% 2 05.11.2026 -
Facundo Miño Deportivo Riestra Actif 124 / 123 40% 3 02.11.2026 -
Alexis Steimbach Gimnasia La Plata Actif 117 / 115 40% 5 31.10.2026 -
Cameron Brannagan Oxford United Actif 116 / 112 40% 6 31.10.2026 -
Pastor CSKA Sofia Actif 125 / 118 40% 2 29.10.2026 -
Ali Mohamed Maccabi Haifa Actif 116 / 114 40% 1 26.10.2026 -
Christos Zafeiris FC Copenhagen Actif 134 / 150 40% 1 18.10.2026 -
Filip Kaloč Ludogorets Actif 132 / 117 40% 1 14.10.2026 -
Kady Borges Qarabag Actif 135 / 129 40% 1 14.10.2026 -
Yves Bissouma Tottenham Actif 150 / 143 40% 1 11.10.2026 -
Fernand Mayembo Hapoel Tel Aviv Actif 110 / 121 40% 1 04.10.2026 -
Owen Beck Liverpool Actif 124 / 119 40% 1 03.10.2026 -
Nico Elvedi Leeds United Actif 132 / 129 40% 1 26.09.2026 -
Ivan Oblyakov CSKA Moscow Actif 133 / 125 40% 1 24.09.2026 -
Alexander Djiku Spartak Moscow Actif 138 / 132 40% 1 17.09.2026 -
Christopher Martins Pereira Spartak Moscow Actif 132 / 127 40% 1 16.09.2026 -
Bruno Tubarão Persija Actif 110 / 120 40% 1 15.09.2026 -
Fernando Costanza Krylya Sovetov Actif 117 / 119 40% 1 09.09.2026 -
Durel Avounou Bnei Sakhnin Actif 108 / 102 76% 1 31.08.2026 Approuver
Lucas Bruera Carabobo Actif 113 / 120 40% 1 25.08.2026 -
Jacob Karlstrøm Anorthosis Actif 112 / 112 40% 1 25.08.2026 -
Charlie Taylor Southampton Actif 113 / 117 40% 1 10.08.2026 -
Filippo Romagna Sassuolo Actif 125 / 122 40% 1 03.08.2026 -
Jordan Beyer Burnley Actif 126 / 130 40% 1 02.08.2026 -
Bernardo TSG Hoffenheim Actif 131 / 136 40% 1 02.08.2026 -
Brahim Díaz Real Madrid Actif 138 / 153 40% 1 02.08.2026 -
Romain Del Castillo Osasuna Actif 140 / 144 40% 1 01.08.2026 -
Gianluca Scamacca Atalanta Actif 139 / 154 40% 1 01.08.2026 -
Leandro Trossard Besiktas Actif 152 / 153 40% 1 01.08.2026 -